Terminal Aerodrome Forecast
Issued by NWS

Home | Current Version | Previous Version | Text Only | Print | Product List | Glossary Off
Versions: 1 2 3 4 5 6 7 8 9 10 11 12 13

000
FTUS43 KBIS 272300
TAFJMS
TAF
KJMS 272338Z 2800/2824 18008KT P6SM SCT250
     FM281400 18009KT P6SM SCT050 BKN120
     FM281700 21012KT P6SM SCT050 BKN100
     FM282200 27010KT P6SM BKN100=

USA.gov is the U.S. government's official web portal to all federal, state and local government web resources and services.